sensor_id;sensor_type;location;lat;lon;timestamp;temperature;humidity
22676;DHT22;12521;43.310;21.876;2023-04-24T00:00:18;14.1;96.0
22676;DHT22;12521;43.310;21.876;2023-04-24T00:04:55;14.0;96.0
22676;DHT22;12521;43.310;21.876;2023-04-24T00:09:32;14.0;96.0
22676;DHT22;12521;43.310;21.876;2023-04-24T00:14:09;14.0;96.0
22676;DHT22;12521;43.310;21.876;2023-04-24T00:18:46;14.0;96.0
22676;DHT22;12521;43.310;21.876;2023-04-24T00:23:23;14.0;96.0
22676;DHT22;12521;43.310;21.876;2023-04-24T00:28:00;14.0;96.0
22676;DHT22;12521;43.310;21.876;2023-04-24T00:32:37;14.1;96.0
22676;DHT22;12521;43.310;21.876;2023-04-24T00:37:14;14.1;96.0
22676;DHT22;12521;43.310;21.876;2023-04-24T00:41:52;14.1;96.0
22676;DHT22;12521;43.310;21.876;2023-04-24T00:46:31;14.2;96.0
22676;DHT22;12521;43.310;21.876;2023-04-24T00:51:09;14.2;96.0
22676;DHT22;12521;43.310;21.876;2023-04-24T00:55:47;14.2;96.0
22676;DHT22;12521;43.310;21.876;2023-04-24T01:00:26;14.2;96.0
22676;DHT22;12521;43.310;21.876;2023-04-24T01:05:06;14.2;96.0
22676;DHT22;12521;43.310;21.876;2023-04-24T01:09:45;14.2;96.0
22676;DHT22;12521;43.310;21.876;2023-04-24T01:14:25;14.3;96.0
22676;DHT22;12521;43.310;21.876;2023-04-24T01:19:02;14.3;96.0
22676;DHT22;12521;43.310;21.876;2023-04-24T01:23:39;14.3;96.0
22676;DHT22;12521;43.310;21.876;2023-04-24T01:28:16;14.3;96.0
22676;DHT22;12521;43.310;21.876;2023-04-24T01:32:55;14.3;96.0
22676;DHT22;12521;43.310;21.876;2023-04-24T01:37:34;14.3;96.0
22676;DHT22;12521;43.310;21.876;2023-04-24T01:42:12;14.3;96.0
22676;DHT22;12521;43.310;21.876;2023-04-24T01:46:51;14.3;96.0
22676;DHT22;12521;43.310;21.876;2023-04-24T01:51:28;14.3;96.0
22676;DHT22;12521;43.310;21.876;2023-04-24T01:56:06;14.3;96.0
22676;DHT22;12521;43.310;21.876;2023-04-24T02:00:44;14.3;96.0
22676;DHT22;12521;43.310;21.876;2023-04-24T02:05:20;14.2;96.0
22676;DHT22;12521;43.310;21.876;2023-04-24T02:09:57;14.2;96.0
22676;DHT22;12521;43.310;21.876;2023-04-24T02:14:34;14.1;96.0
22676;DHT22;12521;43.310;21.876;2023-04-24T02:19:10;14.1;96.0
22676;DHT22;12521;43.310;21.876;2023-04-24T02:23:47;14.0;96.0
22676;DHT22;12521;43.310;21.876;2023-04-24T02:28:23;14.0;96.0
22676;DHT22;12521;43.310;21.876;2023-04-24T02:33:00;14.0;96.0
22676;DHT22;12521;43.310;21.876;2023-04-24T02:37:36;14.0;96.0
22676;DHT22;12521;43.310;21.876;2023-04-24T02:42:12;14.0;96.0
22676;DHT22;12521;43.310;21.876;2023-04-24T02:46:49;14.0;96.0
22676;DHT22;12521;43.310;21.876;2023-04-24T02:51:25;14.0;96.0
22676;DHT22;12521;43.310;21.876;2023-04-24T02:56:02;14.0;96.0
22676;DHT22;12521;43.310;21.876;2023-04-24T03:00:39;14.0;96.0
22676;DHT22;12521;43.310;21.876;2023-04-24T03:05:16;14.0;96.0
22676;DHT22;12521;43.310;21.876;2023-04-24T03:09:53;14.0;96.0
22676;DHT22;12521;43.310;21.876;2023-04-24T03:14:30;14.1;96.0
22676;DHT22;12521;43.310;21.876;2023-04-24T03:19:07;14.1;96.0
22676;DHT22;12521;43.310;21.876;2023-04-24T03:23:44;14.1;96.0
22676;DHT22;12521;43.310;21.876;2023-04-24T03:28:21;14.1;96.0
22676;DHT22;12521;43.310;21.876;2023-04-24T03:32:59;14.1;96.0
22676;DHT22;12521;43.310;21.876;2023-04-24T03:37:37;14.1;96.0
22676;DHT22;12521;43.310;21.876;2023-04-24T03:42:14;14.1;96.0
22676;DHT22;12521;43.310;21.876;2023-04-24T03:46:51;14.1;96.0
22676;DHT22;12521;43.310;21.876;2023-04-24T03:51:28;14.1;96.0
22676;DHT22;12521;43.310;21.876;2023-04-24T03:56:04;14.1;96.0
22676;DHT22;12521;43.310;21.876;2023-04-24T04:00:41;14.1;96.0
22676;DHT22;12521;43.310;21.876;2023-04-24T04:05:18;14.2;96.0
22676;DHT22;12521;43.310;21.876;2023-04-24T04:09:54;14.2;96.0
22676;DHT22;12521;43.310;21.876;2023-04-24T04:14:31;14.2;96.0
22676;DHT22;12521;43.310;21.876;2023-04-24T04:19:07;14.2;96.0
22676;DHT22;12521;43.310;21.876;2023-04-24T04:23:44;14.2;96.0
22676;DHT22;12521;43.310;21.876;2023-04-24T04:28:20;14.2;96.0
22676;DHT22;12521;43.310;21.876;2023-04-24T04:32:57;14.1;96.0
22676;DHT22;12521;43.310;21.876;2023-04-24T04:37:34;14.1;96.0
22676;DHT22;12521;43.310;21.876;2023-04-24T04:42:11;14.1;96.0
22676;DHT22;12521;43.310;21.876;2023-04-24T04:46:48;14.0;96.0
22676;DHT22;12521;43.310;21.876;2023-04-24T04:51:25;14.0;96.0
22676;DHT22;12521;43.310;21.876;2023-04-24T04:56:02;14.0;96.0
22676;DHT22;12521;43.310;21.876;2023-04-24T05:00:40;14.0;96.0
22676;DHT22;12521;43.310;21.876;2023-04-24T05:05:16;14.0;96.0
22676;DHT22;12521;43.310;21.876;2023-04-24T05:09:53;14.0;96.0
22676;DHT22;12521;43.310;21.876;2023-04-24T05:14:30;14.1;96.0
22676;DHT22;12521;43.310;21.876;2023-04-24T05:19:06;14.1;96.0
22676;DHT22;12521;43.310;21.876;2023-04-24T05:23:42;14.2;96.0
22676;DHT22;12521;43.310;21.876;2023-04-24T05:28:18;14.2;96.0
22676;DHT22;12521;43.310;21.876;2023-04-24T05:32:55;14.3;96.0
22676;DHT22;12521;43.310;21.876;2023-04-24T05:37:31;14.3;96.0
22676;DHT22;12521;43.310;21.876;2023-04-24T05:42:08;14.3;96.0
22676;DHT22;12521;43.310;21.876;2023-04-24T05:46:45;14.5;96.0
22676;DHT22;12521;43.310;21.876;2023-04-24T05:51:22;14.5;96.0
22676;DHT22;12521;43.310;21.876;2023-04-24T05:56:00;14.7;96.0
22676;DHT22;12521;43.310;21.876;2023-04-24T06:00:37;14.7;96.0
22676;DHT22;12521;43.310;21.876;2023-04-24T06:05:15;14.8;96.0
22676;DHT22;12521;43.310;21.876;2023-04-24T06:09:52;14.8;96.0
22676;DHT22;12521;43.310;21.876;2023-04-24T06:14:29;14.9;96.0
22676;DHT22;12521;43.310;21.876;2023-04-24T06:19:06;14.9;96.0
22676;DHT22;12521;43.310;21.876;2023-04-24T06:23:44;15.2;96.0
22676;DHT22;12521;43.310;21.876;2023-04-24T06:28:20;15.2;96.0
22676;DHT22;12521;43.310;21.876;2023-04-24T06:32:57;15.5;96.0
22676;DHT22;12521;43.310;21.876;2023-04-24T06:37:33;15.5;96.0
22676;DHT22;12521;43.310;21.876;2023-04-24T06:42:10;15.5;96.0
22676;DHT22;12521;43.310;21.876;2023-04-24T06:46:47;15.8;96.0
22676;DHT22;12521;43.310;21.876;2023-04-24T06:51:24;15.8;96.0
22676;DHT22;12521;43.310;21.876;2023-04-24T06:56:03;16.1;96.0
22676;DHT22;12521;43.310;21.876;2023-04-24T07:00:40;16.1;96.0
22676;DHT22;12521;43.310;21.876;2023-04-24T07:05:16;16.5;96.0
22676;DHT22;12521;43.310;21.876;2023-04-24T07:09:53;16.5;96.0
22676;DHT22;12521;43.310;21.876;2023-04-24T07:14:29;16.8;95.0
22676;DHT22;12521;43.310;21.876;2023-04-24T07:19:06;16.8;95.0
22676;DHT22;12521;43.310;21.876;2023-04-24T07:23:43;17.3;93.0
22676;DHT22;12521;43.310;21.876;2023-04-24T07:28:19;17.3;93.0
22676;DHT22;12521;43.310;21.876;2023-04-24T07:32:56;17.8;91.0
22676;DHT22;12521;43.310;21.876;2023-04-24T07:37:32;17.8;91.0
22676;DHT22;12521;43.310;21.876;2023-04-24T07:42:09;17.8;91.0
22676;DHT22;12521;43.310;21.876;2023-04-24T07:46:45;18.2;90.0
22676;DHT22;12521;43.310;21.876;2023-04-24T07:51:22;18.2;90.0
22676;DHT22;12521;43.310;21.876;2023-04-24T07:55:59;18.6;89.0
22676;DHT22;12521;43.310;21.876;2023-04-24T08:00:35;18.6;89.0
22676;DHT22;12521;43.310;21.876;2023-04-24T08:05:12;19.0;88.0
22676;DHT22;12521;43.310;21.876;2023-04-24T08:09:48;19.0;88.0
22676;DHT22;12521;43.310;21.876;2023-04-24T08:14:25;19.3;87.0
22676;DHT22;12521;43.310;21.876;2023-04-24T08:19:02;19.3;87.0
22676;DHT22;12521;43.310;21.876;2023-04-24T08:23:39;19.6;87.0
22676;DHT22;12521;43.310;21.876;2023-04-24T08:28:17;19.6;87.0
22676;DHT22;12521;43.310;21.876;2023-04-24T08:32:54;19.9;86.0
22676;DHT22;12521;43.310;21.876;2023-04-24T08:37:32;19.9;86.0
22676;DHT22;12521;43.310;21.876;2023-04-24T08:42:11;19.9;86.0
22676;DHT22;12521;43.310;21.876;2023-04-24T08:46:54;20.2;86.0
22676;DHT22;12521;43.310;21.876;2023-04-24T08:51:32;20.2;86.0
22676;DHT22;12521;43.310;21.876;2023-04-24T08:56:14;20.6;85.0
22676;DHT22;12521;43.310;21.876;2023-04-24T09:00:54;20.6;85.0
22676;DHT22;12521;43.310;21.876;2023-04-24T09:05:34;20.7;84.0
22676;DHT22;12521;43.310;21.876;2023-04-24T09:10:12;20.7;84.0
22676;DHT22;12521;43.310;21.876;2023-04-24T09:14:51;20.8;83.0
22676;DHT22;12521;43.310;21.876;2023-04-24T09:19:32;20.8;83.0
22676;DHT22;12521;43.310;21.876;2023-04-24T09:24:16;21.0;83.0
22676;DHT22;12521;43.310;21.876;2023-04-24T09:28:58;21.0;83.0
22676;DHT22;12521;43.310;21.876;2023-04-24T09:33:36;21.1;82.0
22676;DHT22;12521;43.310;21.876;2023-04-24T09:38:14;21.1;82.0
22676;DHT22;12521;43.310;21.876;2023-04-24T09:42:52;21.5;81.0
22676;DHT22;12521;43.310;21.876;2023-04-24T09:47:35;21.5;81.0
22676;DHT22;12521;43.310;21.876;2023-04-24T09:52:15;21.5;81.0
22676;DHT22;12521;43.310;21.876;2023-04-24T09:56:52;21.9;81.0
22676;DHT22;12521;43.310;21.876;2023-04-24T10:01:31;21.9;81.0
22676;DHT22;12521;43.310;21.876;2023-04-24T10:06:13;22.3;80.0
22676;DHT22;12521;43.310;21.876;2023-04-24T10:10:50;22.3;80.0
22676;DHT22;12521;43.310;21.876;2023-04-24T10:15:27;22.7;80.0
22676;DHT22;12521;43.310;21.876;2023-04-24T10:20:06;22.7;80.0
22676;DHT22;12521;43.310;21.876;2023-04-24T10:24:47;23.0;79.0
22676;DHT22;12521;43.310;21.876;2023-04-24T10:29:30;23.0;79.0
22676;DHT22;12521;43.310;21.876;2023-04-24T10:34:10;23.2;78.0
22676;DHT22;12521;43.310;21.876;2023-04-24T10:38:48;23.2;78.0
22676;DHT22;12521;43.310;21.876;2023-04-24T10:43:28;23.5;78.0
22676;DHT22;12521;43.310;21.876;2023-04-24T10:48:06;23.5;78.0
22676;DHT22;12521;43.310;21.876;2023-04-24T10:52:44;23.8;77.0
22676;DHT22;12521;43.310;21.876;2023-04-24T10:57:26;23.8;77.0
22676;DHT22;12521;43.310;21.876;2023-04-24T11:02:07;23.8;77.0
22676;DHT22;12521;43.310;21.876;2023-04-24T11:06:44;24.1;75.0
22676;DHT22;12521;43.310;21.876;2023-04-24T11:11:28;24.1;75.0
22676;DHT22;12521;43.310;21.876;2023-04-24T11:16:15;24.4;74.0
22676;DHT22;12521;43.310;21.876;2023-04-24T11:21:10;24.4;74.0
22676;DHT22;12521;43.310;21.876;2023-04-24T11:26:09;24.4;74.0
22676;DHT22;12521;43.310;21.876;2023-04-24T11:30:57;24.4;74.0
22676;DHT22;12521;43.310;21.876;2023-04-24T11:36:11;24.4;73.0
22676;DHT22;12521;43.310;21.876;2023-04-24T11:40:49;24.4;73.0
22676;DHT22;12521;43.310;21.876;2023-04-24T11:45:31;24.2;74.0
22676;DHT22;12521;43.310;21.876;2023-04-24T11:50:10;24.2;74.0
22676;DHT22;12521;43.310;21.876;2023-04-24T11:54:54;24.1;75.0
22676;DHT22;12521;43.310;21.876;2023-04-24T11:59:36;24.1;75.0
22676;DHT22;12521;43.310;21.876;2023-04-24T12:04:13;23.9;76.0
22676;DHT22;12521;43.310;21.876;2023-04-24T12:08:53;23.9;76.0
22676;DHT22;12521;43.310;21.876;2023-04-24T12:13:30;23.7;77.0
22676;DHT22;12521;43.310;21.876;2023-04-24T12:18:11;23.7;77.0
22676;DHT22;12521;43.310;21.876;2023-04-24T12:22:51;23.6;79.0
22676;DHT22;12521;43.310;21.876;2023-04-24T12:27:34;23.6;79.0
22676;DHT22;12521;43.310;21.876;2023-04-24T12:32:15;23.6;79.0
22676;DHT22;12521;43.310;21.876;2023-04-24T12:36:52;23.5;82.0
22676;DHT22;12521;43.310;21.876;2023-04-24T12:41:30;23.5;82.0
22676;DHT22;12521;43.310;21.876;2023-04-24T12:46:07;23.2;82.0
22676;DHT22;12521;43.310;21.876;2023-04-24T12:50:43;23.2;82.0
22676;DHT22;12521;43.310;21.876;2023-04-24T12:55:20;22.9;82.0
22676;DHT22;12521;43.310;21.876;2023-04-24T12:59:58;22.9;82.0
22676;DHT22;12521;43.310;21.876;2023-04-24T13:04:35;22.4;86.0
22676;DHT22;12521;43.310;21.876;2023-04-24T13:09:12;22.4;86.0
22676;DHT22;12521;43.310;21.876;2023-04-24T13:13:48;21.8;90.0
22676;DHT22;12521;43.310;21.876;2023-04-24T13:18:25;21.8;90.0
22676;DHT22;12521;43.310;21.876;2023-04-24T13:23:01;20.9;93.0
22676;DHT22;12521;43.310;21.876;2023-04-24T13:27:38;20.9;93.0
22676;DHT22;12521;43.310;21.876;2023-04-24T13:32:15;20.9;93.0
22676;DHT22;12521;43.310;21.876;2023-04-24T13:36:55;20.0;96.0
22676;DHT22;12521;43.310;21.876;2023-04-24T13:41:33;20.0;96.0
22676;DHT22;12521;43.310;21.876;2023-04-24T13:46:11;19.6;96.0
22676;DHT22;12521;43.310;21.876;2023-04-24T13:50:48;19.6;96.0
22676;DHT22;12521;43.310;21.876;2023-04-24T13:55:25;19.1;96.0
22676;DHT22;12521;43.310;21.876;2023-04-24T14:00:03;19.1;96.0
22676;DHT22;12521;43.310;21.876;2023-04-24T14:04:48;19.2;96.0
22676;DHT22;12521;43.310;21.876;2023-04-24T14:09:26;19.2;96.0
22676;DHT22;12521;43.310;21.876;2023-04-24T14:14:03;19.3;95.0
22676;DHT22;12521;43.310;21.876;2023-04-24T14:18:42;19.3;95.0
22676;DHT22;12521;43.310;21.876;2023-04-24T14:23:19;19.4;94.0
22676;DHT22;12521;43.310;21.876;2023-04-24T14:27:56;19.4;94.0
22676;DHT22;12521;43.310;21.876;2023-04-24T14:32:33;19.4;94.0
22676;DHT22;12521;43.310;21.876;2023-04-24T14:37:10;19.4;93.0
22676;DHT22;12521;43.310;21.876;2023-04-24T14:41:46;19.4;93.0
22676;DHT22;12521;43.310;21.876;2023-04-24T14:46:23;19.4;93.0
22676;DHT22;12521;43.310;21.876;2023-04-24T14:51:00;19.4;93.0
22676;DHT22;12521;43.310;21.876;2023-04-24T14:55:36;19.3;93.0
22676;DHT22;12521;43.310;21.876;2023-04-24T15:00:14;19.3;93.0
22676;DHT22;12521;43.310;21.876;2023-04-24T15:04:54;19.2;94.0
22676;DHT22;12521;43.310;21.876;2023-04-24T15:09:31;19.2;94.0
22676;DHT22;12521;43.310;21.876;2023-04-24T15:14:07;19.0;96.0
22676;DHT22;12521;43.310;21.876;2023-04-24T15:18:44;19.0;96.0
22676;DHT22;12521;43.310;21.876;2023-04-24T15:23:20;18.8;96.0
22676;DHT22;12521;43.310;21.876;2023-04-24T15:27:58;18.8;96.0
22676;DHT22;12521;43.310;21.876;2023-04-24T15:32:34;18.8;96.0
22676;DHT22;12521;43.310;21.876;2023-04-24T15:37:11;18.6;96.0
22676;DHT22;12521;43.310;21.876;2023-04-24T15:41:48;18.6;96.0
22676;DHT22;12521;43.310;21.876;2023-04-24T15:46:25;18.5;96.0
22676;DHT22;12521;43.310;21.876;2023-04-24T15:51:02;18.5;96.0
22676;DHT22;12521;43.310;21.876;2023-04-24T15:55:38;18.3;96.0
22676;DHT22;12521;43.310;21.876;2023-04-24T16:00:16;18.3;96.0
22676;DHT22;12521;43.310;21.876;2023-04-24T16:04:55;18.0;96.0
22676;DHT22;12521;43.310;21.876;2023-04-24T16:09:31;18.0;96.0
22676;DHT22;12521;43.310;21.876;2023-04-24T16:14:07;17.8;96.0
22676;DHT22;12521;43.310;21.876;2023-04-24T16:18:43;17.8;96.0
22676;DHT22;12521;43.310;21.876;2023-04-24T16:23:20;17.6;96.0
22676;DHT22;12521;43.310;21.876;2023-04-24T16:27:57;17.6;96.0
22676;DHT22;12521;43.310;21.876;2023-04-24T16:32:34;17.6;96.0
22676;DHT22;12521;43.310;21.876;2023-04-24T16:37:11;17.4;96.0
22676;DHT22;12521;43.310;21.876;2023-04-24T16:41:48;17.4;96.0
22676;DHT22;12521;43.310;21.876;2023-04-24T16:46:26;17.2;96.0
22676;DHT22;12521;43.310;21.876;2023-04-24T16:51:03;17.2;96.0
22676;DHT22;12521;43.310;21.876;2023-04-24T16:55:40;17.1;96.0
22676;DHT22;12521;43.310;21.876;2023-04-24T17:00:18;17.1;96.0
22676;DHT22;12521;43.310;21.876;2023-04-24T17:04:55;17.0;96.0
22676;DHT22;12521;43.310;21.876;2023-04-24T17:09:32;17.0;96.0
22676;DHT22;12521;43.310;21.876;2023-04-24T17:14:09;16.8;96.0
22676;DHT22;12521;43.310;21.876;2023-04-24T17:18:45;16.8;96.0
22676;DHT22;12521;43.310;21.876;2023-04-24T17:23:23;16.7;96.0
22676;DHT22;12521;43.310;21.876;2023-04-24T17:28:00;16.7;96.0
22676;DHT22;12521;43.310;21.876;2023-04-24T17:32:36;16.7;96.0
22676;DHT22;12521;43.310;21.876;2023-04-24T17:37:13;16.6;96.0
22676;DHT22;12521;43.310;21.876;2023-04-24T17:41:50;16.6;96.0
22676;DHT22;12521;43.310;21.876;2023-04-24T17:46:27;16.5;96.0
22676;DHT22;12521;43.310;21.876;2023-04-24T17:51:03;16.5;96.0
22676;DHT22;12521;43.310;21.876;2023-04-24T17:55:41;16.3;96.0
22676;DHT22;12521;43.310;21.876;2023-04-24T18:00:17;16.3;96.0
22676;DHT22;12521;43.310;21.876;2023-04-24T18:04:55;16.2;96.0
22676;DHT22;12521;43.310;21.876;2023-04-24T18:09:32;16.2;96.0
22676;DHT22;12521;43.310;21.876;2023-04-24T18:14:08;16.0;96.0
22676;DHT22;12521;43.310;21.876;2023-04-24T18:18:44;16.0;96.0
22676;DHT22;12521;43.310;21.876;2023-04-24T18:23:21;15.9;96.0
22676;DHT22;12521;43.310;21.876;2023-04-24T18:27:57;15.9;96.0
22676;DHT22;12521;43.310;21.876;2023-04-24T18:32:34;15.9;96.0
22676;DHT22;12521;43.310;21.876;2023-04-24T18:37:11;15.8;96.0
22676;DHT22;12521;43.310;21.876;2023-04-24T18:41:47;15.8;96.0
22676;DHT22;12521;43.310;21.876;2023-04-24T18:46:23;15.8;96.0
22676;DHT22;12521;43.310;21.876;2023-04-24T18:51:00;15.8;96.0
22676;DHT22;12521;43.310;21.876;2023-04-24T18:55:36;15.7;96.0
22676;DHT22;12521;43.310;21.876;2023-04-24T19:00:13;15.7;96.0
22676;DHT22;12521;43.310;21.876;2023-04-24T19:04:51;15.7;96.0
22676;DHT22;12521;43.310;21.876;2023-04-24T19:09:27;15.7;96.0
22676;DHT22;12521;43.310;21.876;2023-04-24T19:14:04;15.7;96.0
22676;DHT22;12521;43.310;21.876;2023-04-24T19:18:41;15.7;96.0
22676;DHT22;12521;43.310;21.876;2023-04-24T19:23:18;15.7;96.0
22676;DHT22;12521;43.310;21.876;2023-04-24T19:27:55;15.7;96.0
22676;DHT22;12521;43.310;21.876;2023-04-24T19:32:32;15.7;96.0
22676;DHT22;12521;43.310;21.876;2023-04-24T19:37:09;15.7;96.0
22676;DHT22;12521;43.310;21.876;2023-04-24T19:41:47;15.7;96.0
22676;DHT22;12521;43.310;21.876;2023-04-24T19:46:24;15.6;96.0
22676;DHT22;12521;43.310;21.876;2023-04-24T19:51:02;15.6;96.0
22676;DHT22;12521;43.310;21.876;2023-04-24T19:55:39;15.6;96.0
22676;DHT22;12521;43.310;21.876;2023-04-24T20:00:16;15.6;96.0
22676;DHT22;12521;43.310;21.876;2023-04-24T20:04:52;15.6;96.0
22676;DHT22;12521;43.310;21.876;2023-04-24T20:09:29;15.6;96.0
22676;DHT22;12521;43.310;21.876;2023-04-24T20:14:05;15.5;96.0
22676;DHT22;12521;43.310;21.876;2023-04-24T20:18:42;15.5;96.0
22676;DHT22;12521;43.310;21.876;2023-04-24T20:23:18;15.4;96.0
22676;DHT22;12521;43.310;21.876;2023-04-24T20:27:55;15.4;96.0
22676;DHT22;12521;43.310;21.876;2023-04-24T20:32:32;15.4;96.0
22676;DHT22;12521;43.310;21.876;2023-04-24T20:37:08;15.3;96.0
22676;DHT22;12521;43.310;21.876;2023-04-24T20:41:44;15.3;96.0
22676;DHT22;12521;43.310;21.876;2023-04-24T20:46:21;15.2;96.0
22676;DHT22;12521;43.310;21.876;2023-04-24T20:50:58;15.2;96.0
22676;DHT22;12521;43.310;21.876;2023-04-24T20:55:35;15.1;96.0
22676;DHT22;12521;43.310;21.876;2023-04-24T21:00:12;15.1;96.0
22676;DHT22;12521;43.310;21.876;2023-04-24T21:04:51;15.0;96.0
22676;DHT22;12521;43.310;21.876;2023-04-24T21:09:28;15.0;96.0
22676;DHT22;12521;43.310;21.876;2023-04-24T21:14:04;15.0;96.0
22676;DHT22;12521;43.310;21.876;2023-04-24T21:18:41;15.0;96.0
22676;DHT22;12521;43.310;21.876;2023-04-24T21:23:18;15.0;96.0
22676;DHT22;12521;43.310;21.876;2023-04-24T21:27:54;15.0;96.0
22676;DHT22;12521;43.310;21.876;2023-04-24T21:32:34;15.0;96.0
22676;DHT22;12521;43.310;21.876;2023-04-24T21:37:10;14.9;96.0
22676;DHT22;12521;43.310;21.876;2023-04-24T21:41:47;14.9;96.0
22676;DHT22;12521;43.310;21.876;2023-04-24T21:46:25;14.8;96.0
22676;DHT22;12521;43.310;21.876;2023-04-24T21:51:02;14.8;96.0
22676;DHT22;12521;43.310;21.876;2023-04-24T21:55:39;14.6;96.0
22676;DHT22;12521;43.310;21.876;2023-04-24T22:00:17;14.6;96.0
22676;DHT22;12521;43.310;21.876;2023-04-24T22:04:55;14.4;96.0
22676;DHT22;12521;43.310;21.876;2023-04-24T22:09:32;14.4;96.0
22676;DHT22;12521;43.310;21.876;2023-04-24T22:14:09;14.3;96.0
22676;DHT22;12521;43.310;21.876;2023-04-24T22:18:47;14.3;96.0
22676;DHT22;12521;43.310;21.876;2023-04-24T22:23:25;14.2;96.0
22676;DHT22;12521;43.310;21.876;2023-04-24T22:28:02;14.2;96.0
22676;DHT22;12521;43.310;21.876;2023-04-24T22:32:39;14.2;96.0
22676;DHT22;12521;43.310;21.876;2023-04-24T22:37:16;14.2;96.0
22676;DHT22;12521;43.310;21.876;2023-04-24T22:41:52;14.2;96.0
22676;DHT22;12521;43.310;21.876;2023-04-24T22:46:29;14.2;96.0
22676;DHT22;12521;43.310;21.876;2023-04-24T22:51:06;14.2;96.0
22676;DHT22;12521;43.310;21.876;2023-04-24T22:55:43;14.2;96.0
22676;DHT22;12521;43.310;21.876;2023-04-24T23:00:20;14.2;96.0
22676;DHT22;12521;43.310;21.876;2023-04-24T23:04:56;14.2;96.0
22676;DHT22;12521;43.310;21.876;2023-04-24T23:09:33;14.2;96.0
22676;DHT22;12521;43.310;21.876;2023-04-24T23:14:09;14.2;96.0
22676;DHT22;12521;43.310;21.876;2023-04-24T23:18:46;14.2;96.0
22676;DHT22;12521;43.310;21.876;2023-04-24T23:23:23;14.2;96.0
22676;DHT22;12521;43.310;21.876;2023-04-24T23:28:00;14.2;96.0
22676;DHT22;12521;43.310;21.876;2023-04-24T23:32:36;14.2;96.0
22676;DHT22;12521;43.310;21.876;2023-04-24T23:37:13;14.2;96.0
22676;DHT22;12521;43.310;21.876;2023-04-24T23:41:50;14.2;96.0
22676;DHT22;12521;43.310;21.876;2023-04-24T23:46:26;14.2;96.0
22676;DHT22;12521;43.310;21.876;2023-04-24T23:51:03;14.2;96.0
22676;DHT22;12521;43.310;21.876;2023-04-24T23:55:40;14.1;96.0
